createdAt,value
2019-02-12T00:00:34.044Z,98383.97
2019-02-12T00:03:00.215Z,98425.23
2019-02-12T00:05:26.371Z,98438.25
2019-02-12T00:07:52.680Z,98437.84
2019-02-12T00:10:18.838Z,98440.13
2019-02-12T00:12:45.122Z,98430.10
2019-02-12T00:15:11.430Z,98469.91
2019-02-12T00:17:37.690Z,98475.05
2019-02-12T00:20:05.308Z,98467.25
2019-02-12T00:22:31.506Z,98472.08
2019-02-12T00:24:57.825Z,98479.65
2019-02-12T00:27:24.101Z,98492.56
2019-02-12T00:29:50.291Z,98499.25
2019-02-12T00:32:16.559Z,98490.20
2019-02-12T00:34:43.046Z,98487.61
2019-02-12T00:37:09.348Z,98480.65
2019-02-12T00:39:35.618Z,98473.91
2019-02-12T00:42:01.768Z,98471.65
2019-02-12T00:44:27.951Z,98474.45
2019-02-12T00:46:54.219Z,98480.80
2019-02-12T00:49:20.489Z,98477.64
2019-02-12T00:51:46.682Z,98479.36
2019-02-12T00:54:12.833Z,98487.67
2019-02-12T00:56:38.999Z,98502.12
2019-02-12T00:59:05.292Z,98489.59
2019-02-12T01:01:31.572Z,98494.28
2019-02-12T01:03:57.845Z,98496.88
2019-02-12T01:06:24.165Z,98498.72
2019-02-12T01:08:50.410Z,98507.08
2019-02-12T01:11:16.667Z,98511.52
2019-02-12T01:13:43.072Z,98508.20
2019-02-12T01:16:09.235Z,98509.27
2019-02-12T01:18:35.388Z,98519.17
2019-02-12T01:21:01.795Z,98523.52
2019-02-12T01:23:27.948Z,98532.73
2019-02-12T01:25:54.224Z,98529.73
2019-02-12T01:28:20.409Z,98536.61
2019-02-12T01:30:46.582Z,98551.78
2019-02-12T01:33:12.841Z,98539.59
2019-02-12T01:35:39.044Z,98538.07
2019-02-12T01:38:05.312Z,98541.02
2019-02-12T01:40:31.468Z,98538.89
2019-02-12T01:42:57.659Z,98544.20
2019-02-12T01:45:23.824Z,98550.70
2019-02-12T01:47:49.982Z,98544.59
2019-02-12T01:50:16.170Z,98554.95
2019-02-12T01:52:42.388Z,98564.97
2019-02-12T01:55:08.627Z,98563.34
2019-02-12T01:57:34.938Z,98570.67
2019-02-12T02:00:01.118Z,98593.56
2019-02-12T02:02:27.258Z,98590.51
2019-02-12T02:04:53.455Z,98600.27
2019-02-12T02:07:19.608Z,98610.50
2019-02-12T02:09:46.072Z,98603.97
2019-02-12T02:12:12.258Z,98608.17
2019-02-12T02:14:38.427Z,98616.87
2019-02-12T02:17:04.582Z,98617.20
2019-02-12T02:19:30.779Z,98616.97
2019-02-12T02:21:57.098Z,98606.28
2019-02-12T02:24:23.247Z,98607.39
2019-02-12T02:26:49.465Z,98609.28
2019-02-12T02:29:15.592Z,98617.25
2019-02-12T02:31:41.748Z,98622.58
2019-02-12T02:34:07.943Z,98624.68
2019-02-12T02:36:34.091Z,98624.31
2019-02-12T02:39:00.251Z,98619.23
2019-02-12T02:41:26.444Z,98628.48
2019-02-12T02:43:52.602Z,98632.16
2019-02-12T02:46:18.763Z,98624.10
2019-02-12T02:48:45.052Z,98618.53
2019-02-12T02:51:11.268Z,98617.61
2019-02-12T02:53:37.476Z,98619.67
2019-02-12T02:56:03.683Z,98638.03
2019-02-12T02:58:29.812Z,98645.48
2019-02-12T03:00:55.973Z,98645.58
2019-02-12T03:03:22.264Z,98649.97
2019-02-12T03:05:48.415Z,98659.33
2019-02-12T03:08:14.573Z,98664.83
2019-02-12T03:10:40.867Z,98659.37
2019-02-12T03:13:07.013Z,98680.93
2019-02-12T03:15:33.174Z,98689.48
2019-02-12T03:17:59.363Z,98687.90
2019-02-12T03:20:25.640Z,98669.67
2019-02-12T03:22:51.951Z,98672.66
2019-02-12T03:25:18.150Z,98672.02
2019-02-12T03:27:44.312Z,98663.98
2019-02-12T03:30:11.082Z,98667.78
2019-02-12T03:32:37.291Z,98671.84
2019-02-12T03:35:05.039Z,98676.41
2019-02-12T03:37:31.199Z,98684.73
2019-02-12T03:39:57.458Z,98674.13
2019-02-12T03:42:23.738Z,98680.52
2019-02-12T03:44:50.000Z,98684.16
2019-02-12T03:47:16.283Z,98680.72
2019-02-12T03:49:42.442Z,98668.63
2019-02-12T03:52:12.825Z,98655.23
2019-02-12T03:54:36.704Z,98653.50
2019-02-12T03:57:03.167Z,98653.80
2019-02-12T03:59:29.326Z,98645.94
2019-02-12T04:01:55.612Z,98649.15
2019-02-12T04:04:21.791Z,98652.62
2019-02-12T04:06:47.957Z,98647.37
2019-02-12T04:09:14.254Z,98642.39
2019-02-12T04:11:40.412Z,98653.46
2019-02-12T04:14:06.574Z,98671.97
2019-02-12T04:16:32.778Z,98681.95
2019-02-12T04:18:58.936Z,98679.69
2019-02-12T04:21:25.092Z,98677.30
2019-02-12T04:23:51.390Z,98681.14
2019-02-12T04:26:17.560Z,98673.89
2019-02-12T04:28:43.840Z,98667.73
2019-02-12T04:31:10.029Z,98675.14
2019-02-12T04:33:36.178Z,98675.94
2019-02-12T04:36:02.438Z,98670.45
2019-02-12T04:38:28.728Z,98680.78
2019-02-12T04:40:54.890Z,98681.52
2019-02-12T04:43:21.042Z,98671.63
2019-02-12T04:45:47.535Z,98673.17
2019-02-12T04:48:13.671Z,98678.44
2019-02-12T04:50:39.835Z,98678.12
2019-02-12T04:53:06.132Z,98691.02
2019-02-12T04:55:32.292Z,98696.58
2019-02-12T04:57:58.454Z,98692.48
2019-02-12T05:00:24.801Z,98695.06
2019-02-12T05:02:51.122Z,98683.14
2019-02-12T05:05:17.388Z,98686.03
2019-02-12T05:07:43.582Z,98686.52
2019-02-12T05:10:16.440Z,98708.56
2019-02-12T05:12:42.609Z,98696.34
2019-02-12T05:15:09.090Z,98695.72
2019-02-12T05:17:35.360Z,98708.85
2019-02-12T05:20:01.547Z,98700.61
2019-02-12T05:22:27.847Z,98687.55
2019-02-12T05:24:54.055Z,98697.16
2019-02-12T05:27:20.318Z,98704.11
2019-02-12T05:29:46.613Z,98705.32
2019-02-12T05:32:12.774Z,98703.38
2019-02-12T05:34:39.026Z,98698.04
2019-02-12T05:37:05.216Z,98702.49
2019-02-12T05:39:31.369Z,98699.56
2019-02-12T05:41:57.631Z,98719.17
2019-02-12T05:44:23.860Z,98709.70
2019-02-12T05:46:50.124Z,98712.44
2019-02-12T05:49:16.296Z,98721.58
2019-02-12T05:51:42.470Z,98729.08
2019-02-12T05:54:08.736Z,98724.66
2019-02-12T05:56:34.901Z,98729.30
2019-02-12T05:59:01.165Z,98723.42
2019-02-12T06:01:27.365Z,98721.47
2019-02-12T06:03:53.632Z,98716.75
2019-02-12T06:06:19.836Z,98723.31
2019-02-12T06:08:46.003Z,98724.52
2019-02-12T06:11:12.270Z,98729.08
2019-02-12T06:13:38.579Z,98732.77
2019-02-12T06:16:04.739Z,98735.03
2019-02-12T06:18:30.999Z,98728.31
2019-02-12T06:20:57.315Z,98726.62
2019-02-12T06:23:23.548Z,98728.86
2019-02-12T06:25:49.705Z,98731.19
2019-02-12T06:28:16.002Z,98727.41
2019-02-12T06:30:43.960Z,98729.70
2019-02-12T06:33:10.341Z,98734.30
2019-02-12T06:35:36.658Z,98738.17
2019-02-12T06:38:02.944Z,98734.05
2019-02-12T06:40:29.191Z,98740.20
2019-02-12T06:42:55.414Z,98739.56
2019-02-12T06:45:21.684Z,98739.57
2019-02-12T06:47:47.950Z,98734.04
2019-02-12T06:50:14.195Z,98732.77
2019-02-12T06:52:40.447Z,98740.66
2019-02-12T06:55:10.094Z,98734.82
2019-02-12T06:57:36.885Z,98736.30
2019-02-12T07:00:06.856Z,98734.66
2019-02-12T07:03:11.660Z,98732.40
2019-02-12T07:05:47.403Z,98742.40
2019-02-12T07:08:38.482Z,98743.94
2019-02-12T07:11:17.209Z,98739.89
2019-02-12T07:14:06.565Z,98738.58
2019-02-12T07:16:52.992Z,98745.28
2019-02-12T07:19:56.427Z,98756.84
2019-02-12T07:22:29.114Z,98767.94
2019-02-12T07:25:01.686Z,98768.94
2019-02-12T07:27:37.759Z,98769.94
2019-02-12T07:30:26.210Z,98779.13
2019-02-12T07:33:17.289Z,98772.82
2019-02-12T07:36:22.199Z,98780.48
2019-02-12T07:39:17.886Z,98768.73
2019-02-12T07:41:47.845Z,98757.19
2019-02-12T07:44:17.601Z,98768.36
2019-02-12T07:47:05.666Z,98777.48
2019-02-12T07:49:35.431Z,98786.24
2019-02-12T07:52:11.283Z,98794.20
2019-02-12T07:54:56.323Z,98787.97
2019-02-12T07:57:44.345Z,98775.22
2019-02-12T08:00:17.114Z,98777.78
2019-02-12T08:03:05.001Z,98771.88
2019-02-12T08:05:37.813Z,98765.92
2019-02-12T08:08:32.318Z,98770.08
2019-02-12T08:11:07.887Z,98763.69
2019-02-12T08:13:54.397Z,98763.79
2019-02-12T08:16:24.165Z,98777.06
2019-02-12T08:19:27.647Z,98781.87
2019-02-12T08:22:06.375Z,98787.70
2019-02-12T08:25:09.667Z,98782.80
2019-02-12T08:28:06.434Z,98787.55
2019-02-12T08:30:42.002Z,98783.30
2019-02-12T08:33:20.875Z,98767.84
2019-02-12T08:35:57.203Z,98781.08
2019-02-12T08:38:45.923Z,98777.70
2019-02-12T08:41:41.533Z,98783.18
2019-02-12T08:44:29.328Z,98803.75
2019-02-12T08:46:59.126Z,98809.52
2019-02-12T08:49:50.341Z,98816.48
2019-02-12T08:52:46.082Z,98823.77
2019-02-12T08:55:41.655Z,98797.06
2019-02-12T08:58:11.461Z,98836.68
2019-02-12T09:00:53.128Z,98833.77
2019-02-12T09:03:28.747Z,98829.02
2019-02-12T09:06:10.508Z,98842.78
2019-02-12T09:09:01.790Z,98823.47
2019-02-12T09:11:46.313Z,98839.18
2019-02-12T09:14:16.114Z,98840.84
2019-02-12T09:16:51.659Z,98856.36
2019-02-12T09:19:27.533Z,98855.34
2019-02-12T09:22:29.160Z,98857.14
2019-02-12T09:25:14.164Z,98871.80
2019-02-12T09:28:00.663Z,98869.31
2019-02-12T09:30:45.523Z,98862.83
2019-02-12T09:33:27.027Z,98859.80
2019-02-12T09:35:59.735Z,98859.53
2019-02-12T09:38:41.379Z,98871.95
2019-02-12T09:41:17.249Z,98870.70
2019-02-12T09:44:06.602Z,98867.78
2019-02-12T09:46:42.392Z,98876.81
2019-02-12T09:49:21.066Z,98884.58
2019-02-12T09:51:56.619Z,98881.21
2019-02-12T09:54:29.539Z,98890.77
2019-02-12T09:57:14.676Z,98890.81
2019-02-12T09:59:59.564Z,98897.73
2019-02-12T10:02:58.470Z,98891.29
2019-02-12T10:05:40.327Z,98896.27
2019-02-12T10:08:41.384Z,98896.53
2019-02-12T10:11:11.254Z,98911.87
2019-02-12T10:13:52.973Z,98907.33
2019-02-12T10:16:34.988Z,98900.14
2019-02-12T10:19:16.637Z,98918.87
2019-02-12T10:22:16.288Z,98927.95
2019-02-12T10:24:55.046Z,98939.84
2019-02-12T10:27:56.837Z,98953.42
2019-02-12T10:30:35.687Z,98955.50
2019-02-12T10:33:01.861Z,98972.42
2019-02-12T10:35:28.142Z,98971.25
2019-02-12T10:37:54.444Z,98974.79
2019-02-12T10:40:20.616Z,98969.95
2019-02-12T10:42:46.768Z,98982.41
2019-02-12T10:45:13.060Z,98984.86
2019-02-12T10:47:39.223Z,98979.53
2019-02-12T10:50:07.184Z,98981.02
2019-02-12T10:52:33.487Z,98996.09
2019-02-12T10:54:59.751Z,98993.58
2019-02-12T10:57:26.021Z,98979.45
2019-02-12T10:59:52.212Z,98995.94
2019-02-12T11:02:20.287Z,99003.52
2019-02-12T11:04:46.452Z,99005.72
2019-02-12T11:07:12.634Z,99004.71
2019-02-12T11:09:38.925Z,99004.23
2019-02-12T11:12:05.188Z,99013.82
2019-02-12T11:14:31.381Z,99020.42
2019-02-12T11:16:57.657Z,99021.69
2019-02-12T11:19:23.919Z,99032.02
2019-02-12T11:21:50.265Z,99046.59
2019-02-12T11:24:16.522Z,99053.59
2019-02-12T11:26:42.716Z,99060.59
2019-02-12T11:29:09.020Z,99059.59
2019-02-12T11:31:35.323Z,99071.26
2019-02-12T11:34:01.476Z,99078.05
2019-02-12T11:36:27.669Z,99069.00
2019-02-12T11:38:53.935Z,99079.09
2019-02-12T11:41:20.102Z,99064.68
2019-02-12T11:43:46.325Z,99074.70
2019-02-12T11:46:12.584Z,99069.75
2019-02-12T11:48:38.874Z,99079.16
2019-02-12T11:51:05.056Z,99091.20
2019-02-12T11:53:31.323Z,99099.06
2019-02-12T11:55:57.602Z,99100.52
2019-02-12T11:58:23.815Z,99111.54
2019-02-12T12:00:51.868Z,99100.63
2019-02-12T12:03:18.127Z,99105.94
2019-02-12T12:05:44.450Z,99087.34
2019-02-12T12:08:10.609Z,99107.58
2019-02-12T12:10:36.881Z,99099.83
2019-02-12T12:13:03.184Z,99096.44
2019-02-12T12:15:29.358Z,99114.44
2019-02-12T12:17:55.533Z,99121.34
2019-02-12T12:20:21.834Z,99118.56
2019-02-12T12:22:47.991Z,99132.51
2019-02-12T12:25:14.158Z,99127.86
2019-02-12T12:27:40.504Z,99121.69
2019-02-12T12:30:09.499Z,99130.94
2019-02-12T12:32:36.729Z,99142.69
2019-02-12T12:35:04.836Z,99145.34
2019-02-12T12:37:30.998Z,99137.45
2019-02-12T12:39:57.521Z,99152.27
2019-02-12T12:42:23.707Z,99138.91
2019-02-12T12:44:49.996Z,99146.31
2019-02-12T12:47:16.288Z,99167.48
2019-02-12T12:49:42.623Z,99158.98
2019-02-12T12:52:08.899Z,99161.39
2019-02-12T12:54:35.190Z,99165.05
2019-02-12T12:57:02.539Z,99155.98
2019-02-12T12:59:28.836Z,99167.70
2019-02-12T13:01:55.134Z,99183.59
2019-02-12T13:04:21.469Z,99187.01
2019-02-12T13:06:47.771Z,99191.97
2019-02-12T13:09:13.979Z,99188.38
2019-02-12T13:11:42.688Z,99198.04
2019-02-12T13:14:08.967Z,99207.56
2019-02-12T13:16:35.255Z,99212.23
2019-02-12T13:19:01.570Z,99212.55
2019-02-12T13:21:27.859Z,99226.30
2019-02-12T13:23:54.169Z,99216.86
2019-02-12T13:26:20.479Z,99221.33
2019-02-12T13:28:46.780Z,99234.90
2019-02-12T13:31:13.074Z,99239.77
2019-02-12T13:33:39.398Z,99238.82
2019-02-12T13:36:05.707Z,99240.48
2019-02-12T13:38:31.994Z,99241.89
2019-02-12T13:40:58.366Z,99249.31
2019-02-12T13:43:24.647Z,99248.32
2019-02-12T13:45:50.937Z,99240.80
2019-02-12T13:48:17.254Z,99263.20
2019-02-12T13:50:43.535Z,99266.39
2019-02-12T13:53:09.830Z,99264.84
2019-02-12T13:55:36.150Z,99259.15
2019-02-12T13:58:02.433Z,99269.63
2019-02-12T14:00:28.734Z,99275.16
2019-02-12T14:02:55.044Z,99265.60
2019-02-12T14:05:22.686Z,99269.39
2019-02-12T14:07:49.025Z,99276.25
2019-02-12T14:10:15.357Z,99278.13
2019-02-12T14:12:41.646Z,99277.26
2019-02-12T14:15:11.132Z,99282.30
2019-02-12T14:17:37.461Z,99284.53
2019-02-12T14:20:07.369Z,99282.55
2019-02-12T14:22:33.654Z,99295.55
2019-02-12T14:24:59.983Z,99301.72
2019-02-12T14:27:26.269Z,99299.31
2019-02-12T14:29:52.470Z,99299.42
2019-02-12T14:32:18.685Z,99314.63
2019-02-12T14:34:45.031Z,99326.07
2019-02-12T14:37:11.316Z,99316.44
2019-02-12T14:39:37.629Z,99319.61
2019-02-12T14:42:03.917Z,99326.91
2019-02-12T14:44:30.203Z,99329.91
2019-02-12T14:46:56.432Z,99334.19
2019-02-12T14:49:22.743Z,99354.89
2019-02-12T14:51:49.030Z,99346.09
2019-02-12T14:54:15.396Z,99361.19
2019-02-12T14:56:41.683Z,99368.45
2019-02-12T14:59:13.802Z,99373.31
2019-02-12T15:01:40.123Z,99377.70
2019-02-12T15:04:06.410Z,99370.30
2019-02-12T15:06:32.695Z,99377.67
2019-02-12T15:08:59.020Z,99388.46
2019-02-12T15:11:25.315Z,99393.02
2019-02-12T15:13:51.636Z,99402.70
2019-02-12T15:16:17.850Z,99390.99
2019-02-12T15:18:44.146Z,99391.98
2019-02-12T15:21:10.340Z,99412.53
2019-02-12T15:23:36.663Z,99428.02
2019-02-12T15:26:02.964Z,99420.79
2019-02-12T15:28:29.147Z,99427.36
2019-02-12T15:30:55.474Z,99409.79
2019-02-12T15:33:21.765Z,99431.73
2019-02-12T15:35:48.193Z,99422.94
2019-02-12T15:38:14.424Z,99435.25
2019-02-12T15:40:41.087Z,99438.30
2019-02-12T15:43:07.288Z,99434.37
2019-02-12T15:45:33.621Z,99450.84
2019-02-12T15:47:59.910Z,99460.37
2019-02-12T15:50:26.207Z,99461.55
2019-02-12T15:52:52.433Z,99462.74
2019-02-12T15:55:18.755Z,99462.37
2019-02-12T15:57:45.934Z,99467.89
2019-02-12T16:00:16.094Z,99478.20
2019-02-12T16:02:43.464Z,99479.23
2019-02-12T16:05:12.358Z,99492.69
2019-02-12T16:07:38.801Z,99497.56
2019-02-12T16:10:11.007Z,99505.98
2019-02-12T16:12:37.306Z,99503.96
2019-02-12T16:15:09.731Z,99511.58
2019-02-12T16:17:37.377Z,99511.66
2019-02-12T16:20:06.011Z,99517.53
2019-02-12T16:22:32.336Z,99524.98
2019-02-12T16:24:58.631Z,99546.20
2019-02-12T16:27:25.108Z,99540.50
2019-02-12T16:29:51.424Z,99532.40
2019-02-12T16:32:17.710Z,99543.27
2019-02-12T16:34:43.999Z,99544.36
2019-02-12T16:37:10.402Z,99549.63
2019-02-12T16:39:36.690Z,99551.87
2019-02-12T16:42:02.991Z,99560.63
2019-02-12T16:44:29.308Z,99567.86
2019-02-12T16:46:55.634Z,99570.50
2019-02-12T16:49:21.914Z,99574.56
2019-02-12T16:51:48.243Z,99579.81
2019-02-12T16:54:14.548Z,99579.50
2019-02-12T16:56:40.736Z,99584.25
2019-02-12T16:59:07.056Z,99586.69
2019-02-12T17:01:33.241Z,99583.89
2019-02-12T17:03:59.532Z,99595.18
2019-02-12T17:06:25.860Z,99603.22
2019-02-12T17:08:52.159Z,99621.68
2019-02-12T17:11:18.353Z,99613.11
2019-02-12T17:13:44.667Z,99613.48
2019-02-12T17:16:10.955Z,99620.56
2019-02-12T17:18:37.240Z,99617.23
2019-02-12T17:21:03.571Z,99632.11
2019-02-12T17:23:29.803Z,99640.52
2019-02-12T17:25:56.117Z,99634.80
2019-02-12T17:28:22.442Z,99637.10
2019-02-12T17:30:48.733Z,99647.08
2019-02-12T17:33:15.018Z,99648.51
2019-02-12T17:35:41.341Z,99657.53
2019-02-12T17:38:08.500Z,99658.23
2019-02-12T17:40:34.790Z,99664.32
2019-02-12T17:43:01.110Z,99675.61
2019-02-12T17:45:27.588Z,99666.28
2019-02-12T17:47:53.967Z,99682.13
2019-02-12T17:50:20.297Z,99681.63
2019-02-12T17:52:46.589Z,99672.70
2019-02-12T17:55:12.874Z,99689.88
2019-02-12T17:57:39.198Z,99678.80
2019-02-12T18:00:16.664Z,99693.82
2019-02-12T18:02:42.985Z,99699.73
2019-02-12T18:05:09.276Z,99701.28
2019-02-12T18:07:35.564Z,99708.87
2019-02-12T18:10:01.880Z,99711.27
2019-02-12T18:12:28.188Z,99713.96
2019-02-12T18:14:54.489Z,99714.88
2019-02-12T18:17:20.811Z,99703.14
2019-02-12T18:19:47.106Z,99707.82
2019-02-12T18:22:13.386Z,99700.09
2019-02-12T18:24:39.725Z,99709.17
2019-02-12T18:27:06.021Z,99706.73
2019-02-12T18:29:32.658Z,99704.90
2019-02-12T18:31:58.991Z,99707.82
2019-02-12T18:34:25.279Z,99713.91
2019-02-12T18:36:51.567Z,99710.77
2019-02-12T18:39:18.011Z,99725.25
2019-02-12T18:41:44.783Z,99728.94
2019-02-12T18:44:11.038Z,99736.56
2019-02-12T18:46:37.354Z,99735.33
2019-02-12T18:49:03.640Z,99742.80
2019-02-12T18:51:29.939Z,99739.26
2019-02-12T18:53:56.249Z,99758.33
2019-02-12T18:56:22.548Z,99764.08
2019-02-12T18:58:48.842Z,99758.64
2019-02-12T19:01:15.156Z,99765.30
2019-02-12T19:03:41.449Z,99755.14
2019-02-12T19:06:07.735Z,99761.62
2019-02-12T19:08:34.045Z,99764.37
2019-02-12T19:11:00.340Z,99758.83
2019-02-12T19:13:26.661Z,99777.98
2019-02-12T19:15:53.039Z,99778.51
2019-02-12T19:18:21.940Z,99789.54
2019-02-12T19:20:48.225Z,99790.89
2019-02-12T19:23:14.544Z,99789.15
2019-02-12T19:25:40.914Z,99804.02
2019-02-12T19:28:07.208Z,99799.81
2019-02-12T19:30:33.534Z,99812.43
2019-02-12T19:32:59.829Z,99806.82
2019-02-12T19:35:26.113Z,99808.05
2019-02-12T19:37:52.433Z,99814.67
2019-02-12T19:40:18.794Z,99818.92
2019-02-12T19:42:45.146Z,99818.22
2019-02-12T19:45:14.152Z,99833.75
2019-02-12T19:47:40.615Z,99822.69
2019-02-12T19:50:08.609Z,99841.47
2019-02-12T19:52:34.939Z,99847.81
2019-02-12T19:55:01.227Z,99849.21
2019-02-12T19:57:27.896Z,99859.84
2019-02-12T19:59:54.230Z,99860.10
2019-02-12T20:02:20.524Z,99858.63
2019-02-12T20:04:46.804Z,99866.08
2019-02-12T20:07:13.130Z,99852.73
2019-02-12T20:09:39.422Z,99864.98
2019-02-12T20:12:05.721Z,99876.88
2019-02-12T20:14:32.060Z,99872.23
2019-02-12T20:16:58.356Z,99872.29
2019-02-12T20:19:24.639Z,99882.55
2019-02-12T20:21:50.866Z,99877.78
2019-02-12T20:24:17.166Z,99880.29
2019-02-12T20:26:43.450Z,99885.66
2019-02-12T20:29:09.681Z,99879.38
2019-02-12T20:31:35.960Z,99884.91
2019-02-12T20:34:02.157Z,99889.06
2019-02-12T20:36:28.483Z,99896.05
2019-02-12T20:38:54.780Z,99897.95
2019-02-12T20:41:21.034Z,99901.67
2019-02-12T20:43:47.252Z,99897.20
2019-02-12T20:46:13.544Z,99907.52
2019-02-12T20:48:39.849Z,99913.78
2019-02-12T20:51:06.182Z,99927.25
2019-02-12T20:53:32.479Z,99908.03
2019-02-12T20:55:58.758Z,99917.14
2019-02-12T20:58:25.088Z,99925.79
2019-02-12T21:00:51.385Z,99930.89
2019-02-12T21:03:17.678Z,99935.78
2019-02-12T21:05:43.908Z,99937.62
2019-02-12T21:08:10.198Z,99936.64
2019-02-12T21:10:36.485Z,99943.78
2019-02-12T21:13:02.805Z,99942.66
2019-02-12T21:15:29.805Z,99946.14
2019-02-12T21:17:55.995Z,99957.63
2019-02-12T21:20:22.327Z,99957.09
2019-02-12T21:22:48.610Z,99955.11
2019-02-12T21:25:14.917Z,99954.16
2019-02-12T21:27:41.123Z,99962.45
2019-02-12T21:30:16.806Z,99965.98
2019-02-12T21:32:43.027Z,99960.60
2019-02-12T21:35:11.503Z,99957.71
2019-02-12T21:37:37.781Z,99972.20
2019-02-12T21:40:19.468Z,99967.94
2019-02-12T21:42:46.729Z,99965.42
2019-02-12T21:45:12.992Z,99965.54
2019-02-12T21:47:39.201Z,99971.14
2019-02-12T21:50:09.999Z,99971.81
2019-02-12T21:52:36.161Z,99971.07
2019-02-12T21:55:04.558Z,99967.11
2019-02-12T21:57:32.091Z,99972.62
2019-02-12T21:59:58.486Z,99980.84
2019-02-12T22:02:24.683Z,99985.88
2019-02-12T22:04:50.851Z,99979.85
2019-02-12T22:07:17.115Z,99987.59
2019-02-12T22:09:43.323Z,99995.16
2019-02-12T22:12:09.584Z,99994.88
2019-02-12T22:14:35.631Z,99994.95
2019-02-12T22:17:02.786Z,99999.45
2019-02-12T22:19:28.951Z,100001.02
2019-02-12T22:21:55.117Z,100019.33
2019-02-12T22:24:21.305Z,100016.50
2019-02-12T22:26:47.458Z,100028.87
2019-02-12T22:29:13.615Z,100021.50
2019-02-12T22:31:39.803Z,100016.00
2019-02-12T22:34:06.066Z,100022.83
2019-02-12T22:36:32.222Z,100027.29
2019-02-12T22:38:58.421Z,100021.57
2019-02-12T22:41:24.579Z,100014.32
2019-02-12T22:43:50.779Z,100033.63
2019-02-12T22:46:16.972Z,100024.70
2019-02-12T22:48:43.231Z,100034.63
2019-02-12T22:51:09.393Z,100034.52
2019-02-12T22:53:35.478Z,100047.92
2019-02-12T22:56:01.770Z,100043.51
2019-02-12T22:58:27.926Z,100040.71
2019-02-12T23:00:57.358Z,100059.27
2019-02-12T23:03:24.253Z,100051.80
2019-02-12T23:05:50.428Z,100068.27
2019-02-12T23:08:16.748Z,100063.84
2019-02-12T23:10:42.938Z,100067.44
2019-02-12T23:13:09.238Z,100070.30
2019-02-12T23:15:35.661Z,100073.28
2019-02-12T23:18:01.839Z,100065.25
2019-02-12T23:20:28.025Z,100078.12
2019-02-12T23:22:54.336Z,100074.42
2019-02-12T23:25:20.641Z,100076.78
2019-02-12T23:27:46.934Z,100085.02
2019-02-12T23:30:13.262Z,100087.94
2019-02-12T23:32:39.544Z,100087.91
2019-02-12T23:35:05.833Z,100090.87
2019-02-12T23:37:32.162Z,100098.38
2019-02-12T23:39:58.459Z,100099.73
2019-02-12T23:42:24.752Z,100109.02
2019-02-12T23:44:51.125Z,100104.05
2019-02-12T23:47:17.414Z,100106.97
2019-02-12T23:49:43.697Z,100124.37
2019-02-12T23:52:10.032Z,100114.72
2019-02-12T23:54:36.218Z,100119.67
2019-02-12T23:57:02.512Z,100112.83
2019-02-12T23:59:28.833Z,100122.77
